메인 페이지
METAR-TAF:

METAR-TAF

공항 :

도지시티, 캔자스, 미국

위도: 37-46-22N, 경도: 099-58-11W, 고도: 790m

현재 날씨관측

예보는 30분 전, 08:52시(UTC)에 발표되었습니다.
남동10kt
온도 17°C
습도 94%
기압 1007 hPa
시정: 11.3km
고도 2000ft 상공 구름 많음

METAR: KDDC 200852Z AUTO 14010KT 7SM BKN020 17/16 A2974 RMK AO2 SLP036 T01720161 56010

시각: 04:22 (09:22 UTC)

예보

예보는 4 시간 2분 전, 05:20시(UTC)에 발표되었습니다.
예보 대상 시간: 20일 06시부터 21일 06시까지 (UTC)
남동10kt
시정: 10km
고도 10000ft 상공 구름 보통
20일 0900시부터 (UTC)
동남동10kt
시정: 8.0km
고도 1000ft 상공 흐림
박무
20일 1200시부터 (UTC)
동남동9kt
시정: 6.4km
고도 500ft 상공 흐림
박무
20일 1500시부터 (UTC)
6kt
시정: 10km
고도 1000ft 상공 흐림
20일 1800시부터 (UTC)
동남동6kt
시정: 10km
고도 15000ft 상공 구름 많음
21일 0000시부터 (UTC)
동남동9kt
시정: 10km
고도 20000ft 상공 구름 보통

TAF: KDDC 200520Z 2006/2106 13010KT P6SM SCT100 FM200900 11010KT 5SM BR OVC010 FM201200 11009KT 4SM BR OVC005 FM201500 09006KT P6SM OVC010 FM201800 12006KT P6SM BKN150 FM210000 12009KT P6SM SCT200

4,000개 이상의 공항 관측 자료 및 예보 (METAR 및 TAF 보고).

지도상에서 검색 가능한 기상관측소가 노란 점과 빨간 점으로 표시되어 있습니다.

기상관측소 명을 보려면 표시 위로 마우스를 이동하세요.

날씨 관측과 예보를 보려면 클릭하세요.

지도 변경 : 확대하려면 엑스 표시가 있는 녹색 버튼, 축소하려면 빼기 표시가 있는 녹색 버튼, 다음 페이지의 지도를 보려면 녹색 화살표를 클릭하세요.


METAR-TAF: